sensor_id;sensor_type;location;lat;lon;timestamp;pressure;altitude;pressure_sealevel;temperature;humidity
6198;BME280;3132;42.622;23.328;2022-10-31T00:02:04;93312.72;;;14.29;58.70
6198;BME280;3132;42.622;23.328;2022-10-31T00:04:29;93299.31;;;14.30;57.98
6198;BME280;3132;42.622;23.328;2022-10-31T00:06:55;93298.84;;;14.28;58.33
6198;BME280;3132;42.622;23.328;2022-10-31T00:09:20;93299.13;;;14.27;58.92
6198;BME280;3132;42.622;23.328;2022-10-31T00:11:46;93289.63;;;14.07;61.12
6198;BME280;3132;42.622;23.328;2022-10-31T00:14:11;93291.09;;;13.95;60.30
6198;BME280;3132;42.622;23.328;2022-10-31T00:16:36;93305.06;;;13.90;60.87
6198;BME280;3132;42.622;23.328;2022-10-31T00:19:05;93274.94;;;13.64;61.79
6198;BME280;3132;42.622;23.328;2022-10-31T00:21:31;93292.81;;;13.62;62.87
6198;BME280;3132;42.622;23.328;2022-10-31T00:23:58;93289.75;;;13.55;63.29
6198;BME280;3132;42.622;23.328;2022-10-31T00:26:24;93284.94;;;13.39;64.08
6198;BME280;3132;42.622;23.328;2022-10-31T00:28:49;93303.00;;;13.40;64.65
6198;BME280;3132;42.622;23.328;2022-10-31T00:31:16;93306.06;;;13.24;65.28
6198;BME280;3132;42.622;23.328;2022-10-31T00:33:42;93304.25;;;13.24;65.45
6198;BME280;3132;42.622;23.328;2022-10-31T00:36:14;93312.19;;;13.14;65.37
6198;BME280;3132;42.622;23.328;2022-10-31T00:38:40;93305.47;;;13.03;65.70
6198;BME280;3132;42.622;23.328;2022-10-31T00:41:06;93297.69;;;12.93;66.70
6198;BME280;3132;42.622;23.328;2022-10-31T00:43:31;93297.97;;;12.91;67.16
6198;BME280;3132;42.622;23.328;2022-10-31T00:45:57;93295.34;;;12.91;66.69
6198;BME280;3132;42.622;23.328;2022-10-31T00:48:22;93273.75;;;12.71;67.54
6198;BME280;3132;42.622;23.328;2022-10-31T00:50:47;93289.09;;;12.82;67.97
6198;BME280;3132;42.622;23.328;2022-10-31T00:53:13;93290.19;;;12.81;67.79
6198;BME280;3132;42.622;23.328;2022-10-31T00:55:38;93287.56;;;12.81;67.83
6198;BME280;3132;42.622;23.328;2022-10-31T00:58:03;93278.97;;;12.76;68.11
6198;BME280;3132;42.622;23.328;2022-10-31T01:00:29;93299.28;;;12.89;68.27
6198;BME280;3132;42.622;23.328;2022-10-31T01:02:54;93278.50;;;12.69;68.24
6198;BME280;3132;42.622;23.328;2022-10-31T01:05:20;93300.50;;;12.68;69.06
6198;BME280;3132;42.622;23.328;2022-10-31T01:07:45;93289.06;;;12.59;69.34
6198;BME280;3132;42.622;23.328;2022-10-31T01:10:11;93297.41;;;12.61;69.25
6198;BME280;3132;42.622;23.328;2022-10-31T01:12:37;93292.75;;;12.53;69.48
6198;BME280;3132;42.622;23.328;2022-10-31T01:15:03;93277.81;;;12.53;69.87
6198;BME280;3132;42.622;23.328;2022-10-31T01:17:29;93296.31;;;12.67;69.74
6198;BME280;3132;42.622;23.328;2022-10-31T01:19:54;93302.75;;;12.46;71.11
6198;BME280;3132;42.622;23.328;2022-10-31T01:22:20;93300.19;;;12.36;71.61
6198;BME280;3132;42.622;23.328;2022-10-31T01:24:45;93300.81;;;12.23;72.22
6198;BME280;3132;42.622;23.328;2022-10-31T01:27:10;93302.91;;;12.26;71.80
6198;BME280;3132;42.622;23.328;2022-10-31T01:29:36;93313.81;;;12.38;71.91
6198;BME280;3132;42.622;23.328;2022-10-31T01:32:01;93299.75;;;12.24;72.69
6198;BME280;3132;42.622;23.328;2022-10-31T01:34:26;93299.75;;;12.29;72.06
6198;BME280;3132;42.622;23.328;2022-10-31T01:36:52;93312.50;;;12.40;71.83
6198;BME280;3132;42.622;23.328;2022-10-31T01:39:18;93308.97;;;12.55;71.71
6198;BME280;3132;42.622;23.328;2022-10-31T01:41:47;93307.41;;;12.59;71.26
6198;BME280;3132;42.622;23.328;2022-10-31T01:46:51;93312.78;;;12.72;71.46
6198;BME280;3132;42.622;23.328;2022-10-31T01:49:30;93303.13;;;12.68;71.95
6198;BME280;3132;42.622;23.328;2022-10-31T01:54:29;93319.78;;;12.82;71.40
6198;BME280;3132;42.622;23.328;2022-10-31T01:56:57;93319.78;;;12.82;71.90
6198;BME280;3132;42.622;23.328;2022-10-31T01:59:26;93312.09;;;12.90;71.67
6198;BME280;3132;42.622;23.328;2022-10-31T02:01:53;93314.19;;;12.93;71.40
6198;BME280;3132;42.622;23.328;2022-10-31T02:04:19;93315.75;;;12.94;70.98
6198;BME280;3132;42.622;23.328;2022-10-31T02:06:58;93301.34;;;12.92;71.14
6198;BME280;3132;42.622;23.328;2022-10-31T02:09:26;93307.53;;;13.06;70.99
6198;BME280;3132;42.622;23.328;2022-10-31T02:11:53;93290.31;;;12.95;70.52
6198;BME280;3132;42.622;23.328;2022-10-31T02:14:25;93309.03;;;13.17;69.68
6198;BME280;3132;42.622;23.328;2022-10-31T02:16:51;93312.81;;;13.30;69.72
6198;BME280;3132;42.622;23.328;2022-10-31T02:25:13;93314.81;;;13.14;71.74
6198;BME280;3132;42.622;23.328;2022-10-31T02:30:35;93317.44;;;13.14;70.95
6198;BME280;3132;42.622;23.328;2022-10-31T02:41:29;93332.72;;;13.07;71.47
6198;BME280;3132;42.622;23.328;2022-10-31T02:46:50;93341.78;;;13.20;70.72
6198;BME280;3132;42.622;23.328;2022-10-31T02:49:26;93346.03;;;13.11;70.30
6198;BME280;3132;42.622;23.328;2022-10-31T02:51:53;93353.72;;;13.02;71.39
6198;BME280;3132;42.622;23.328;2022-10-31T02:54:24;93340.09;;;12.95;68.77
6198;BME280;3132;42.622;23.328;2022-10-31T02:56:54;93346.31;;;13.09;68.98
6198;BME280;3132;42.622;23.328;2022-10-31T02:59:22;93347.78;;;13.20;69.38
6198;BME280;3132;42.622;23.328;2022-10-31T03:07:16;93344.34;;;13.25;68.88
6198;BME280;3132;42.622;23.328;2022-10-31T03:09:56;93352.97;;;13.30;68.85
6198;BME280;3132;42.622;23.328;2022-10-31T03:12:34;93351.34;;;13.34;69.02
6198;BME280;3132;42.622;23.328;2022-10-31T03:15:23;93347.25;;;13.23;69.11
6198;BME280;3132;42.622;23.328;2022-10-31T03:20:24;93344.81;;;13.32;68.63
6198;BME280;3132;42.622;23.328;2022-10-31T03:22:52;93339.88;;;13.25;69.64
6198;BME280;3132;42.622;23.328;2022-10-31T03:25:18;93345.38;;;13.29;69.23
6198;BME280;3132;42.622;23.328;2022-10-31T03:27:44;93352.13;;;13.35;68.71
6198;BME280;3132;42.622;23.328;2022-10-31T03:30:10;93348.81;;;13.24;68.91
6198;BME280;3132;42.622;23.328;2022-10-31T03:32:42;93343.78;;;13.28;69.01
6198;BME280;3132;42.622;23.328;2022-10-31T03:35:11;93344.69;;;13.18;68.59
6198;BME280;3132;42.622;23.328;2022-10-31T03:37:39;93355.59;;;13.30;68.69
6198;BME280;3132;42.622;23.328;2022-10-31T03:40:06;93355.19;;;13.42;68.11
6198;BME280;3132;42.622;23.328;2022-10-31T03:42:34;93357.53;;;13.43;68.84
6198;BME280;3132;42.622;23.328;2022-10-31T03:45:14;93342.44;;;13.35;68.39
6198;BME280;3132;42.622;23.328;2022-10-31T03:47:42;93351.75;;;13.46;68.31
6198;BME280;3132;42.622;23.328;2022-10-31T03:50:09;93362.69;;;13.53;68.64
6198;BME280;3132;42.622;23.328;2022-10-31T03:58:01;93364.44;;;13.34;69.75
6198;BME280;3132;42.622;23.328;2022-10-31T04:00:30;93369.81;;;13.24;69.66
6198;BME280;3132;42.622;23.328;2022-10-31T04:03:17;93367.78;;;13.16;70.18
6198;BME280;3132;42.622;23.328;2022-10-31T04:05:46;93372.88;;;13.03;71.21
6198;BME280;3132;42.622;23.328;2022-10-31T04:08:15;93356.75;;;12.80;72.05
6198;BME280;3132;42.622;23.328;2022-10-31T04:10:43;93376.34;;;12.88;72.28
6198;BME280;3132;42.622;23.328;2022-10-31T04:13:14;93375.41;;;12.74;72.52
6198;BME280;3132;42.622;23.328;2022-10-31T04:15:42;93361.59;;;12.63;72.85
6198;BME280;3132;42.622;23.328;2022-10-31T04:18:08;93374.38;;;12.70;72.58
6198;BME280;3132;42.622;23.328;2022-10-31T04:20:39;93375.41;;;12.69;72.67
6198;BME280;3132;42.622;23.328;2022-10-31T04:23:16;93377.53;;;12.67;73.32
6198;BME280;3132;42.622;23.328;2022-10-31T04:25:43;93379.03;;;12.78;73.10
6198;BME280;3132;42.622;23.328;2022-10-31T04:28:09;93384.31;;;12.73;73.85
6198;BME280;3132;42.622;23.328;2022-10-31T04:30:34;93374.13;;;12.71;74.38
6198;BME280;3132;42.622;23.328;2022-10-31T04:32:59;93382.28;;;12.65;74.76
6198;BME280;3132;42.622;23.328;2022-10-31T04:35:25;93377.06;;;12.60;75.48
6198;BME280;3132;42.622;23.328;2022-10-31T04:37:51;93378.13;;;12.59;75.56
6198;BME280;3132;42.622;23.328;2022-10-31T04:40:16;93382.31;;;12.55;75.58
6198;BME280;3132;42.622;23.328;2022-10-31T04:42:41;93389.16;;;12.56;75.64
6198;BME280;3132;42.622;23.328;2022-10-31T04:45:07;93381.06;;;12.47;75.04
6198;BME280;3132;42.622;23.328;2022-10-31T04:47:33;93391.00;;;12.50;75.20
6198;BME280;3132;42.622;23.328;2022-10-31T04:49:59;93385.47;;;12.52;75.45
6198;BME280;3132;42.622;23.328;2022-10-31T04:52:24;93389.84;;;12.66;75.17
6198;BME280;3132;42.622;23.328;2022-10-31T04:54:49;93383.38;;;12.54;75.95
6198;BME280;3132;42.622;23.328;2022-10-31T04:57:15;93370.34;;;12.44;76.03
6198;BME280;3132;42.622;23.328;2022-10-31T04:59:40;93394.69;;;12.49;76.12
6198;BME280;3132;42.622;23.328;2022-10-31T05:02:05;93395.22;;;12.46;76.66
6198;BME280;3132;42.622;23.328;2022-10-31T05:04:31;93360.94;;;12.38;76.60
6198;BME280;3132;42.622;23.328;2022-10-31T05:06:56;93390.41;;;12.63;76.00
6198;BME280;3132;42.622;23.328;2022-10-31T05:09:21;93399.28;;;12.62;76.38
6198;BME280;3132;42.622;23.328;2022-10-31T05:11:47;93404.25;;;12.64;76.45
6198;BME280;3132;42.622;23.328;2022-10-31T05:14:12;93391.97;;;12.64;76.19
6198;BME280;3132;42.622;23.328;2022-10-31T05:16:37;93399.97;;;12.83;75.48
6198;BME280;3132;42.622;23.328;2022-10-31T05:19:03;93406.28;;;12.77;74.78
6198;BME280;3132;42.622;23.328;2022-10-31T05:21:28;93410.47;;;12.78;74.71
6198;BME280;3132;42.622;23.328;2022-10-31T05:23:53;93407.22;;;12.96;74.40
6198;BME280;3132;42.622;23.328;2022-10-31T05:26:19;93413.47;;;13.05;74.19
6198;BME280;3132;42.622;23.328;2022-10-31T05:28:44;93417.16;;;12.99;74.78
6198;BME280;3132;42.622;23.328;2022-10-31T05:31:09;93416.13;;;13.00;74.79
6198;BME280;3132;42.622;23.328;2022-10-31T05:33:35;93413.50;;;13.00;75.22
6198;BME280;3132;42.622;23.328;2022-10-31T05:36:00;93418.19;;;13.03;74.49
6198;BME280;3132;42.622;23.328;2022-10-31T05:38:25;93419.25;;;12.97;74.94
6198;BME280;3132;42.622;23.328;2022-10-31T05:40:54;93422.97;;;12.91;75.95
6198;BME280;3132;42.622;23.328;2022-10-31T05:43:22;93426.94;;;12.88;76.47
6198;BME280;3132;42.622;23.328;2022-10-31T05:45:52;93423.34;;;12.74;77.27
6198;BME280;3132;42.622;23.328;2022-10-31T05:48:17;93425.72;;;12.71;76.98
6198;BME280;3132;42.622;23.328;2022-10-31T05:50:42;93431.53;;;12.63;77.75
6198;BME280;3132;42.622;23.328;2022-10-31T05:53:08;93433.94;;;12.54;78.03
6198;BME280;3132;42.622;23.328;2022-10-31T05:55:33;93435.25;;;12.52;77.63
6198;BME280;3132;42.622;23.328;2022-10-31T05:57:59;93435.25;;;12.52;76.57
6198;BME280;3132;42.622;23.328;2022-10-31T06:00:25;93433.16;;;12.54;77.01
6198;BME280;3132;42.622;23.328;2022-10-31T06:03:00;93439.44;;;12.53;78.29
6198;BME280;3132;42.622;23.328;2022-10-31T06:05:27;93436.75;;;12.68;78.01
6198;BME280;3132;42.622;23.328;2022-10-31T06:07:52;93445.59;;;12.77;76.57
6198;BME280;3132;42.622;23.328;2022-10-31T06:10:18;93440.38;;;12.72;76.88
6198;BME280;3132;42.622;23.328;2022-10-31T06:12:44;93444.59;;;12.68;76.87
6198;BME280;3132;42.622;23.328;2022-10-31T06:15:09;93447.16;;;12.78;76.58
6198;BME280;3132;42.622;23.328;2022-10-31T06:17:35;93460.75;;;12.85;75.96
6198;BME280;3132;42.622;23.328;2022-10-31T06:20:01;93439.78;;;12.85;75.64
6198;BME280;3132;42.622;23.328;2022-10-31T06:22:26;93460.94;;;12.98;75.32
6198;BME280;3132;42.622;23.328;2022-10-31T06:24:52;93458.06;;;13.00;75.67
6198;BME280;3132;42.622;23.328;2022-10-31T06:27:17;93463.28;;;13.05;74.92
6198;BME280;3132;42.622;23.328;2022-10-31T06:29:43;93456.88;;;13.21;74.38
6198;BME280;3132;42.622;23.328;2022-10-31T06:32:11;93478.19;;;13.43;73.73
6198;BME280;3132;42.622;23.328;2022-10-31T06:34:37;93470.22;;;13.25;75.25
6198;BME280;3132;42.622;23.328;2022-10-31T06:37:02;93464.19;;;13.24;74.58
6198;BME280;3132;42.622;23.328;2022-10-31T06:39:28;93474.88;;;13.33;74.42
6198;BME280;3132;42.622;23.328;2022-10-31T06:41:53;93477.13;;;13.11;76.04
6198;BME280;3132;42.622;23.328;2022-10-31T06:44:18;93476.25;;;13.25;75.48
6198;BME280;3132;42.622;23.328;2022-10-31T06:46:46;93479.41;;;13.22;75.30
6198;BME280;3132;42.622;23.328;2022-10-31T06:49:12;93483.50;;;13.38;74.85
6198;BME280;3132;42.622;23.328;2022-10-31T06:51:37;93487.72;;;13.34;75.05
6198;BME280;3132;42.622;23.328;2022-10-31T06:54:02;93484.63;;;13.61;73.63
6198;BME280;3132;42.622;23.328;2022-10-31T06:56:28;93497.41;;;13.72;73.06
6198;BME280;3132;42.622;23.328;2022-10-31T06:58:53;93486.47;;;13.89;71.81
6198;BME280;3132;42.622;23.328;2022-10-31T07:01:18;93495.66;;;13.91;71.83
6198;BME280;3132;42.622;23.328;2022-10-31T07:03:44;93488.16;;;13.80;72.60
6198;BME280;3132;42.622;23.328;2022-10-31T07:06:09;93490.28;;;13.73;73.87
6198;BME280;3132;42.622;23.328;2022-10-31T07:08:34;93490.81;;;13.75;73.86
6198;BME280;3132;42.622;23.328;2022-10-31T07:11:00;93490.34;;;13.96;71.82
6198;BME280;3132;42.622;23.328;2022-10-31T07:13:25;93496.03;;;14.32;69.86
6198;BME280;3132;42.622;23.328;2022-10-31T07:15:58;93496.13;;;14.22;70.53
6198;BME280;3132;42.622;23.328;2022-10-31T07:18:24;93494.63;;;14.16;70.51
6198;BME280;3132;42.622;23.328;2022-10-31T07:20:49;93491.50;;;14.14;70.88
6198;BME280;3132;42.622;23.328;2022-10-31T07:23:16;93493.31;;;14.13;71.05
6198;BME280;3132;42.622;23.328;2022-10-31T07:25:41;93480.53;;;14.07;71.63
6198;BME280;3132;42.622;23.328;2022-10-31T07:28:07;93484.03;;;14.26;71.37
6198;BME280;3132;42.622;23.328;2022-10-31T07:30:33;93451.91;;;14.34;70.22
6198;BME280;3132;42.622;23.328;2022-10-31T07:32:58;93477.53;;;14.66;69.45
6198;BME280;3132;42.622;23.328;2022-10-31T07:35:26;93471.44;;;14.23;71.01
6198;BME280;3132;42.622;23.328;2022-10-31T07:37:52;93457.63;;;14.41;70.63
6198;BME280;3132;42.622;23.328;2022-10-31T07:40:18;93470.44;;;14.66;69.49
6198;BME280;3132;42.622;23.328;2022-10-31T07:42:46;93480.41;;;14.69;69.15
6198;BME280;3132;42.622;23.328;2022-10-31T07:45:13;93468.78;;;14.52;69.58
6198;BME280;3132;42.622;23.328;2022-10-31T07:50:16;93475.50;;;15.18;67.31
6198;BME280;3132;42.622;23.328;2022-10-31T07:52:42;93483.91;;;15.02;67.60
6198;BME280;3132;42.622;23.328;2022-10-31T07:55:08;93481.56;;;15.19;67.04
6198;BME280;3132;42.622;23.328;2022-10-31T07:57:33;93484.47;;;15.17;67.31
6198;BME280;3132;42.622;23.328;2022-10-31T07:59:59;93484.84;;;15.11;67.69
6198;BME280;3132;42.622;23.328;2022-10-31T08:02:25;93484.25;;;15.51;66.12
6198;BME280;3132;42.622;23.328;2022-10-31T08:04:51;93482.78;;;15.77;65.17
6198;BME280;3132;42.622;23.328;2022-10-31T08:07:16;93486.00;;;15.74;64.63
6198;BME280;3132;42.622;23.328;2022-10-31T08:09:42;93490.06;;;15.66;64.95
6198;BME280;3132;42.622;23.328;2022-10-31T08:12:07;93494.84;;;15.46;66.01
6198;BME280;3132;42.622;23.328;2022-10-31T08:14:33;93485.81;;;15.52;65.59
6198;BME280;3132;42.622;23.328;2022-10-31T08:16:58;93482.06;;;15.39;66.52
6198;BME280;3132;42.622;23.328;2022-10-31T08:19:24;93490.03;;;15.53;66.42
6198;BME280;3132;42.622;23.328;2022-10-31T08:21:53;93478.97;;;15.69;65.97
6198;BME280;3132;42.622;23.328;2022-10-31T08:24:21;93483.41;;;15.87;64.94
6198;BME280;3132;42.622;23.328;2022-10-31T08:26:46;93487.03;;;16.05;64.77
6198;BME280;3132;42.622;23.328;2022-10-31T08:29:12;93484.53;;;16.14;63.96
6198;BME280;3132;42.622;23.328;2022-10-31T08:31:37;93489.59;;;16.24;63.42
6198;BME280;3132;42.622;23.328;2022-10-31T08:34:03;93496.03;;;16.18;63.76
6198;BME280;3132;42.622;23.328;2022-10-31T08:36:28;93493.69;;;16.16;64.27
6198;BME280;3132;42.622;23.328;2022-10-31T08:38:54;93489.59;;;16.24;62.88
6198;BME280;3132;42.622;23.328;2022-10-31T08:41:20;93489.22;;;16.17;63.25
6198;BME280;3132;42.622;23.328;2022-10-31T08:43:45;93497.13;;;16.03;64.09
6198;BME280;3132;42.622;23.328;2022-10-31T08:46:11;93495.38;;;16.12;63.92
6198;BME280;3132;42.622;23.328;2022-10-31T08:48:36;93500.06;;;16.15;63.94
6198;BME280;3132;42.622;23.328;2022-10-31T08:51:02;93487.84;;;16.05;64.06
6198;BME280;3132;42.622;23.328;2022-10-31T08:53:28;93490.97;;;16.21;63.71
6198;BME280;3132;42.622;23.328;2022-10-31T08:55:55;93489.97;;;16.49;62.61
6198;BME280;3132;42.622;23.328;2022-10-31T08:58:21;93462.13;;;16.43;62.30
6198;BME280;3132;42.622;23.328;2022-10-31T09:00:49;93492.88;;;16.88;61.33
6198;BME280;3132;42.622;23.328;2022-10-31T09:03:25;93493.66;;;16.75;61.75
6198;BME280;3132;42.622;23.328;2022-10-31T09:05:55;93490.25;;;16.88;61.82
6198;BME280;3132;42.622;23.328;2022-10-31T09:08:20;93487.88;;;17.00;61.58
6198;BME280;3132;42.622;23.328;2022-10-31T09:10:46;93488.97;;;16.86;61.72
6198;BME280;3132;42.622;23.328;2022-10-31T09:13:17;93492.00;;;16.79;62.34
6198;BME280;3132;42.622;23.328;2022-10-31T09:15:44;93448.63;;;16.72;62.22
6198;BME280;3132;42.622;23.328;2022-10-31T09:18:12;93476.88;;;17.20;61.38
6198;BME280;3132;42.622;23.328;2022-10-31T09:20:38;93488.88;;;17.26;60.88
6198;BME280;3132;42.622;23.328;2022-10-31T09:23:10;93490.97;;;17.51;60.07
6198;BME280;3132;42.622;23.328;2022-10-31T09:25:36;93491.19;;;17.77;59.04
6198;BME280;3132;42.622;23.328;2022-10-31T09:28:04;93489.66;;;18.07;58.34
6198;BME280;3132;42.622;23.328;2022-10-31T09:30:32;93490.47;;;18.16;57.21
6198;BME280;3132;42.622;23.328;2022-10-31T09:33:04;93492.81;;;18.17;56.32
6198;BME280;3132;42.622;23.328;2022-10-31T09:35:30;93494.75;;;18.34;55.69
6198;BME280;3132;42.622;23.328;2022-10-31T09:38:00;93491.31;;;18.25;55.57
6198;BME280;3132;42.622;23.328;2022-10-31T09:40:40;93495.25;;;18.36;54.48
6198;BME280;3132;42.622;23.328;2022-10-31T09:46:29;93496.88;;;18.45;54.18
6198;BME280;3132;42.622;23.328;2022-10-31T09:49:17;93499.47;;;18.67;53.85
6198;BME280;3132;42.622;23.328;2022-10-31T09:51:53;93487.91;;;18.55;53.51
6198;BME280;3132;42.622;23.328;2022-10-31T09:57:14;93502.69;;;18.56;51.87
6198;BME280;3132;42.622;23.328;2022-10-31T09:59:41;93492.53;;;18.49;51.80
6198;BME280;3132;42.622;23.328;2022-10-31T10:02:31;93495.97;;;18.50;51.72
6198;BME280;3132;42.622;23.328;2022-10-31T10:05:10;93491.59;;;18.93;50.72
6198;BME280;3132;42.622;23.328;2022-10-31T10:21:39;93477.94;;;19.16;50.25
6198;BME280;3132;42.622;23.328;2022-10-31T10:30:26;93465.16;;;19.27;48.75
6198;BME280;3132;42.622;23.328;2022-10-31T10:32:59;93469.06;;;19.12;48.56
6198;BME280;3132;42.622;23.328;2022-10-31T10:35:45;93465.78;;;19.07;49.65
6198;BME280;3132;42.622;23.328;2022-10-31T10:38:20;93449.91;;;19.24;49.56
6198;BME280;3132;42.622;23.328;2022-10-31T10:40:48;93454.56;;;19.27;48.81
6198;BME280;3132;42.622;23.328;2022-10-31T10:43:32;93448.53;;;19.27;48.46
6198;BME280;3132;42.622;23.328;2022-10-31T10:48:56;93445.88;;;19.52;47.76
6198;BME280;3132;42.622;23.328;2022-10-31T10:51:42;93449.31;;;19.44;48.01
6198;BME280;3132;42.622;23.328;2022-10-31T10:54:41;93448.84;;;19.59;47.74
6198;BME280;3132;42.622;23.328;2022-10-31T10:59:38;93440.13;;;19.59;47.32
6198;BME280;3132;42.622;23.328;2022-10-31T11:02:08;93450.22;;;19.74;47.81
6198;BME280;3132;42.622;23.328;2022-10-31T11:04:41;93446.66;;;19.61;46.79
6198;BME280;3132;42.622;23.328;2022-10-31T11:07:10;93437.59;;;19.79;46.94
6198;BME280;3132;42.622;23.328;2022-10-31T11:09:36;93435.88;;;19.83;48.22
6198;BME280;3132;42.622;23.328;2022-10-31T11:12:11;93438.09;;;19.81;47.06
6198;BME280;3132;42.622;23.328;2022-10-31T11:14:47;93424.94;;;19.93;46.74
6198;BME280;3132;42.622;23.328;2022-10-31T11:17:36;93430.19;;;20.10;47.63
6198;BME280;3132;42.622;23.328;2022-10-31T11:22:30;93430.53;;;20.00;46.50
6198;BME280;3132;42.622;23.328;2022-10-31T11:24:56;93424.00;;;19.89;46.34
6198;BME280;3132;42.622;23.328;2022-10-31T11:27:23;93421.53;;;19.84;46.96
6198;BME280;3132;42.622;23.328;2022-10-31T11:29:50;93417.31;;;19.92;47.34
6198;BME280;3132;42.622;23.328;2022-10-31T11:32:21;93414.63;;;20.00;46.62
6198;BME280;3132;42.622;23.328;2022-10-31T11:34:53;93414.91;;;20.24;46.19
6198;BME280;3132;42.622;23.328;2022-10-31T11:37:32;93382.50;;;20.02;45.57
6198;BME280;3132;42.622;23.328;2022-10-31T11:40:02;93406.22;;;20.15;45.63
6198;BME280;3132;42.622;23.328;2022-10-31T11:42:37;93411.31;;;20.12;45.79
6198;BME280;3132;42.622;23.328;2022-10-31T11:45:14;93405.59;;;20.01;45.43
6198;BME280;3132;42.622;23.328;2022-10-31T11:47:44;93386.84;;;20.06;45.93
6198;BME280;3132;42.622;23.328;2022-10-31T11:50:19;93399.31;;;20.14;47.44
6198;BME280;3132;42.622;23.328;2022-10-31T11:52:46;93387.78;;;20.10;45.85
6198;BME280;3132;42.622;23.328;2022-10-31T11:57:51;93399.91;;;20.28;45.48
6198;BME280;3132;42.622;23.328;2022-10-31T12:00:27;93395.22;;;20.25;45.48
6198;BME280;3132;42.622;23.328;2022-10-31T12:06:12;93377.13;;;20.27;45.47
6198;BME280;3132;42.622;23.328;2022-10-31T12:08:36;93392.06;;;20.40;46.03
6198;BME280;3132;42.622;23.328;2022-10-31T12:13:37;93377.13;;;20.27;45.10
6198;BME280;3132;42.622;23.328;2022-10-31T12:16:20;93395.63;;;20.44;45.26
6198;BME280;3132;42.622;23.328;2022-10-31T12:19:23;93396.34;;;20.53;45.49
6198;BME280;3132;42.622;23.328;2022-10-31T12:22:08;93395.53;;;20.61;44.64
6198;BME280;3132;42.622;23.328;2022-10-31T12:30:21;93377.81;;;20.07;45.46
6198;BME280;3132;42.622;23.328;2022-10-31T13:00:12;93383.41;;;19.08;50.73
6198;BME280;3132;42.622;23.328;2022-10-31T13:03:00;93384.34;;;18.95;50.43
6198;BME280;3132;42.622;23.328;2022-10-31T13:05:35;93365.81;;;18.78;50.89
6198;BME280;3132;42.622;23.328;2022-10-31T13:08:06;93387.59;;;18.84;50.15
6198;BME280;3132;42.622;23.328;2022-10-31T13:13:55;93375.75;;;18.73;51.72
6198;BME280;3132;42.622;23.328;2022-10-31T13:16:25;93376.53;;;18.73;51.06
6198;BME280;3132;42.622;23.328;2022-10-31T13:19:16;93379.16;;;18.65;51.14
6198;BME280;3132;42.622;23.328;2022-10-31T13:24:59;93386.03;;;18.66;51.95
6198;BME280;3132;42.622;23.328;2022-10-31T13:27:33;93385.41;;;18.69;51.81
6198;BME280;3132;42.622;23.328;2022-10-31T13:30:23;93383.06;;;18.67;52.27
6198;BME280;3132;42.622;23.328;2022-10-31T13:32:57;93372.31;;;18.72;52.73
6198;BME280;3132;42.622;23.328;2022-10-31T13:38:05;93377.63;;;18.81;52.03
6198;BME280;3132;42.622;23.328;2022-10-31T13:43:51;93379.81;;;18.96;51.44
6198;BME280;3132;42.622;23.328;2022-10-31T13:46:26;93384.16;;;19.00;51.73
6198;BME280;3132;42.622;23.328;2022-10-31T13:48:59;93387.47;;;19.06;52.01
6198;BME280;3132;42.622;23.328;2022-10-31T13:51:30;93382.16;;;19.06;52.18
6198;BME280;3132;42.622;23.328;2022-10-31T13:54:00;93377.50;;;19.03;52.19
6198;BME280;3132;42.622;23.328;2022-10-31T13:56:28;93381.53;;;18.92;53.08
6198;BME280;3132;42.622;23.328;2022-10-31T14:01:31;93382.59;;;18.65;54.27
6198;BME280;3132;42.622;23.328;2022-10-31T14:04:06;93387.09;;;18.56;53.86
6198;BME280;3132;42.622;23.328;2022-10-31T14:09:01;93384.03;;;18.32;54.43
6198;BME280;3132;42.622;23.328;2022-10-31T14:11:27;93388.22;;;18.25;54.83
6198;BME280;3132;42.622;23.328;2022-10-31T14:13:55;93387.88;;;18.18;54.96
6198;BME280;3132;42.622;23.328;2022-10-31T14:16:28;93384.41;;;18.09;54.71
6198;BME280;3132;42.622;23.328;2022-10-31T14:19:21;93389.06;;;18.03;54.83
6198;BME280;3132;42.622;23.328;2022-10-31T14:21:47;93379.06;;;17.92;55.54
6198;BME280;3132;42.622;23.328;2022-10-31T14:26:55;93397.41;;;17.88;57.42
6198;BME280;3132;42.622;23.328;2022-10-31T14:29:29;93392.22;;;17.83;57.75
6198;BME280;3132;42.622;23.328;2022-10-31T14:32:24;93387.63;;;17.67;58.63
6198;BME280;3132;42.622;23.328;2022-10-31T14:34:56;93389.94;;;17.59;58.64
6198;BME280;3132;42.622;23.328;2022-10-31T14:50:50;93373.72;;;17.08;60.67
6198;BME280;3132;42.622;23.328;2022-10-31T14:53:23;93379.00;;;17.08;60.13
6198;BME280;3132;42.622;23.328;2022-10-31T14:55:52;93379.59;;;17.05;60.54
6198;BME280;3132;42.622;23.328;2022-10-31T14:58:22;93381.19;;;16.93;60.51
6198;BME280;3132;42.622;23.328;2022-10-31T15:00:54;93382.19;;;16.83;59.93
6198;BME280;3132;42.622;23.328;2022-10-31T15:03:30;93376.44;;;16.81;59.97
6198;BME280;3132;42.622;23.328;2022-10-31T15:06:02;93383.50;;;16.72;59.96
6198;BME280;3132;42.622;23.328;2022-10-31T15:08:32;93386.94;;;16.73;59.78
6198;BME280;3132;42.622;23.328;2022-10-31T15:11:02;93374.84;;;16.58;60.78
6198;BME280;3132;42.622;23.328;2022-10-31T15:13:28;93384.59;;;16.58;60.18
6198;BME280;3132;42.622;23.328;2022-10-31T15:15:55;93358.25;;;16.31;60.38
6198;BME280;3132;42.622;23.328;2022-10-31T15:18:30;93400.25;;;16.54;60.21
6198;BME280;3132;42.622;23.328;2022-10-31T15:20:56;93401.41;;;16.48;60.84
6198;BME280;3132;42.622;23.328;2022-10-31T15:23:26;93395.16;;;16.44;60.77
6198;BME280;3132;42.622;23.328;2022-10-31T15:26:00;93400.69;;;16.43;60.80
6198;BME280;3132;42.622;23.328;2022-10-31T15:28:26;93398.44;;;16.36;61.01
6198;BME280;3132;42.622;23.328;2022-10-31T15:30:54;93408.03;;;16.32;60.64
6198;BME280;3132;42.622;23.328;2022-10-31T15:33:25;93403.53;;;16.19;62.22
6198;BME280;3132;42.622;23.328;2022-10-31T15:35:56;93403.34;;;16.02;63.14
6198;BME280;3132;42.622;23.328;2022-10-31T15:38:21;93410.56;;;16.10;62.47
6198;BME280;3132;42.622;23.328;2022-10-31T15:43:21;93416.41;;;15.93;63.54
6198;BME280;3132;42.622;23.328;2022-10-31T15:45:47;93402.75;;;15.78;64.34
6198;BME280;3132;42.622;23.328;2022-10-31T15:48:16;93409.03;;;15.63;65.14
6198;BME280;3132;42.622;23.328;2022-10-31T15:50:48;93414.00;;;15.51;65.27
6198;BME280;3132;42.622;23.328;2022-10-31T15:56:10;93407.31;;;15.40;65.72